Time;durP1;ratioP1;P1;durP2;ratioP2;P2;SDS_P1;SDS_P2;PMS_P1;PMS_P2;Temp;Humidity;BMP_temperature;BMP_pressure;BME280_temperature;BME280_humidity;BME280_pressure;Samples;Min_cycle;Max_cycle;Signal;HPM_P1;HPM_P2
2023/08/04 02:47:14;;;;;;;;;;;;;;;;;;;;;
2023/08/04 07:12:33;;;;;;;2.90;1.30;;;;;;;22.48;63.49;99951.12;215066;1265;72972;-76
2023/08/04 08:40:02;;;;;;;1.30;0.90;;;;;;;24.73;53.84;100028.56;216766;1253;72412;-75
2023/08/04 08:45:01;;;;;;;2.80;0.80;;;;;;;24.78;54.24;100027.77;217678;1248;70608;-76
2023/08/04 08:50:03;;;;;;;1.30;1.00;;;;;;;24.87;53.89;100032.78;219356;1246;60482;-75
2023/08/04 08:55:44;;;;;;;7.00;1.80;;;;;;;24.82;53.31;100049.17;220697;1239;66940;-75
2023/08/04 09:01:17;;;;;;;2.50;1.50;;;;;;;24.68;53.60;100055.04;220714;1242;60418;-75
2023/08/04 09:20:00;;;;;;;0.90;0.90;;;;;;;26.11;51.64;100054.71;217725;1256;60547;-75
2023/08/04 09:25:47;;;;;;;1.00;0.80;;;;;;;26.59;50.68;100060.56;217474;1254;66003;-75
2023/08/04 09:32:24;;;;;;;2.00;0.90;;;;;;;26.77;50.40;100057.39;217458;1257;60442;-75
2023/08/04 09:38:15;;;;;;;;;;;;;;;;;;;;;
2023/08/04 09:44:44;;;;;;;;;;;;;;;;;;;;;
2023/08/04 09:50:20;;;;;;;0.80;0.80;;;;;;;26.64;50.01;100053.55;216099;1260;62119;-77
2023/08/04 09:55:24;;;;;;;1.10;1.00;;;;;;;26.52;49.27;100062.44;217587;1248;67231;-75
2023/08/04 10:00:32;;;;;;;1.50;0.90;;;;;;;26.46;48.96;100065.45;219182;1249;60489;-75
2023/08/04 10:05:25;;;;;;;1.90;1.30;;;;;;;26.41;49.30;100073.35;219206;1250;71306;-75
2023/08/04 10:17:15;;;;;;;1.20;1.10;;;;;;;26.65;48.28;100076.55;219166;1241;61113;-75
2023/08/04 10:22:09;;;;;;;2.70;1.30;;;;;;;27.52;47.90;100068.22;220182;1242;67993;-75
2023/08/04 10:27:13;;;;;;;4.10;1.20;;;;;;;29.26;45.95;100070.77;221582;1232;60358;-75
2023/08/04 10:32:12;;;;;;;1.10;1.00;;;;;;;30.14;44.98;100071.43;221811;1232;73386;-76
2023/08/04 10:37:15;;;;;;;1.40;1.30;;;;;;;29.63;44.93;100062.66;221908;1234;71282;-75
2023/08/04 10:42:13;;;;;;;1.30;1.20;;;;;;;30.15;44.24;100059.89;221950;1234;60503;-75
2023/08/04 10:47:08;;;;;;;1.40;1.00;;;;;;;31.18;43.29;100061.20;221929;1230;65613;-75
2023/08/04 10:52:04;;;;;;;1.60;1.10;;;;;;;32.79;41.32;100058.52;221910;1234;60407;-75
2023/08/04 10:56:56;;;;;;;1.00;0.90;;;;;;;33.90;39.06;100051.77;221882;1232;75095;-75
2023/08/04 11:02:28;;;;;;;1.50;1.00;;;;;;;34.59;37.35;100057.81;222031;1232;60506;-75
2023/08/04 11:07:24;;;;;;;1.20;1.10;;;;;;;33.24;37.67;100055.15;221744;1232;60439;-75
2023/08/04 11:12:16;;;;;;;1.50;1.10;;;;;;;32.69;38.75;100057.96;221882;1231;67956;-75
2023/08/04 11:17:55;;;;;;;1.90;1.00;;;;;;;33.83;37.61;100060.88;221932;1232;60537;-76
2023/08/04 11:29:56;;;;;;;1.20;1.10;;;;;;;34.24;36.24;100069.29;218726;1245;73853;-75
2023/08/04 11:41:02;;;;;;;1.30;1.20;;;;;;;33.31;37.21;100064.98;219575;1245;66680;-75
2023/08/04 11:58:07;;;;;;;10.40;9.30;;;;;;;30.98;38.49;100064.45;220131;1240;71714;-75
2023/08/04 12:03:05;;;;;;;3.60;2.80;;;;;;;30.50;38.91;100062.46;220935;1238;60614;-75
2023/08/04 12:08:13;;;;;;;1.40;1.10;;;;;;;30.50;39.74;100064.61;220938;1239;65433;-74
2023/08/04 12:13:05;;;;;;;1.90;1.30;;;;;;;30.42;39.10;100067.71;222019;1232;60556;-76
2023/08/04 12:18:00;;;;;;;2.60;1.50;;;;;;;30.26;38.79;100069.80;221891;1234;60548;-75
2023/08/04 12:22:53;;;;;;;1.90;0.70;;;;;;;30.25;39.48;100069.89;221823;1232;73719;-76
2023/08/04 12:27:45;;;;;;;1.40;1.20;;;;;;;30.33;39.29;100068.77;221836;1230;61215;-75
2023/08/04 12:32:37;;;;;;;1.40;1.10;;;;;;;30.26;39.03;100072.63;222027;1234;60384;-75
2023/08/04 12:37:28;;;;;;;3.00;1.30;;;;;;;30.33;40.05;100063.20;221816;1232;60456;-76
2023/08/04 12:42:20;;;;;;;5.50;4.00;;;;;;;30.45;39.86;100065.52;221724;1232;65278;-76
2023/08/04 12:47:12;;;;;;;5.70;4.10;;;;;;;30.42;38.32;100068.61;221937;1232;60380;-74
2023/08/04 12:52:04;;;;;;;5.60;5.10;;;;;;;30.37;38.82;100072.37;221900;1234;60502;-74
2023/08/04 12:56:56;;;;;;;1.90;1.40;;;;;;;30.47;38.74;100077.93;221938;1232;60564;-75
2023/08/04 13:01:48;;;;;;;3.10;1.20;;;;;;;30.54;38.81;100074.81;221762;1231;60454;-75
2023/08/04 13:12:38;;;;;;;1.70;1.40;;;;;;;30.30;38.97;100083.77;222072;1230;60382;-77
2023/08/04 13:17:29;;;;;;;1.80;1.10;;;;;;;30.07;39.26;100076.94;220509;1238;66018;-76
2023/08/04 13:22:21;;;;;;;1.50;1.30;;;;;;;29.03;39.19;100076.73;220544;1241;60936;-75
2023/08/04 13:27:14;;;;;;;1.90;1.40;;;;;;;28.74;39.82;100068.90;220515;1239;60500;-75
2023/08/04 13:32:21;;;;;;;1.90;1.10;;;;;;;28.99;40.19;100065.94;220561;1241;72015;-75
2023/08/04 13:37:27;;;;;;;;;;;;;;;;;;;;;
2023/08/04 13:42:28;;;;;;;1.30;1.00;;;;;;;29.50;39.99;100079.69;220564;1239;68060;-76
2023/08/04 13:47:32;;;;;;;;;;;;;;;;;;;;;
2023/08/04 13:52:28;;;;;;;1.20;1.00;;;;;;;29.95;39.16;100071.38;221454;1232;74415;-74
2023/08/04 14:03:42;;;;;;;4.10;1.20;;;;;;;29.60;39.19;100074.77;221465;1232;61217;-75
2023/08/04 14:08:35;;;;;;;2.10;1.30;;;;;;;29.38;39.26;100080.91;221980;1234;60534;-76
2023/08/04 14:13:26;;;;;;;2.10;1.60;;;;;;;29.54;39.30;100084.02;221778;1231;60544;-75
2023/08/04 14:18:20;;;;;;;2.30;1.10;;;;;;;29.50;39.11;100087.54;221824;1232;60444;-75
2023/08/04 14:23:25;;;;;;;1.50;0.90;;;;;;;29.41;38.84;100084.54;222033;1232;60437;-75
2023/08/04 14:48:22;;;;;;;3.40;1.20;;;;;;;28.02;41.09;100088.35;218753;1251;68462;-76
2023/08/04 14:53:15;;;;;;;2.80;1.20;;;;;;;27.78;42.23;100095.92;218763;1250;60578;-76
2023/08/04 14:58:20;;;;;;;3.10;1.90;;;;;;;27.56;42.29;100107.30;218550;1251;60531;-75
2023/08/04 15:03:14;;;;;;;1.70;1.10;;;;;;;27.38;43.01;100110.74;219013;1251;70629;-75
2023/08/04 15:08:06;;;;;;;2.70;1.30;;;;;;;27.21;43.12;100106.77;219093;1249;60437;-75
2023/08/04 17:40:31;;;;;;;3.80;1.30;;;;;;;23.59;52.30;100166.71;218099;1248;72522;-75
2023/08/04 17:45:57;;;;;;;4.40;1.60;;;;;;;23.44;52.89;100183.27;218300;1251;72780;-76
2023/08/04 20:12:06;;;;;;;;;;;;;;;;;;;;;
2023/08/04 22:49:45;;;;;;;;;;;;;;;;;;;;;
2023/08/04 23:01:57;;;;;;;5.90;4.50;;;;;;;18.17;68.05;100309.88;215000;1266;59831;-75
2023/08/04 23:07:26;;;;;;;;;;;;;;;;;;;;;
2023/08/04 23:27:19;;;;;;;;;;;;;;;;;;;;;
